createdAt,value
2023-03-13T00:01:51.915Z,100.00
2023-03-13T00:04:19.301Z,100.00
2023-03-13T00:06:52.459Z,100.00
2023-03-13T00:09:24.343Z,100.00
2023-03-13T00:11:54.639Z,100.00
2023-03-13T00:14:34.133Z,100.00
2023-03-13T00:17:02.673Z,100.00
2023-03-13T00:19:32.988Z,100.00
2023-03-13T00:22:03.485Z,100.00
2023-03-13T00:24:33.629Z,100.00
2023-03-13T00:27:08.424Z,100.00
2023-03-13T00:29:38.112Z,100.00
2023-03-13T00:32:10.172Z,100.00
2023-03-13T00:34:37.330Z,100.00
2023-03-13T00:37:05.437Z,100.00
2023-03-13T00:39:35.535Z,100.00
2023-03-13T00:42:03.563Z,100.00
2023-03-13T00:44:30.536Z,100.00
2023-03-13T00:46:57.653Z,100.00
2023-03-13T00:49:24.817Z,100.00
2023-03-13T00:52:01.350Z,100.00
2023-03-13T00:54:28.820Z,100.00
2023-03-13T00:56:56.030Z,100.00
2023-03-13T00:59:23.422Z,100.00
2023-03-13T01:01:50.485Z,100.00
2023-03-13T01:04:23.383Z,100.00
2023-03-13T01:06:51.441Z,100.00
2023-03-13T01:09:27.154Z,100.00
2023-03-13T01:12:03.068Z,100.00
2023-03-13T01:14:37.455Z,100.00
2023-03-13T01:17:04.764Z,100.00
2023-03-13T01:19:34.428Z,100.00
2023-03-13T01:22:02.215Z,100.00
2023-03-13T01:24:32.404Z,100.00
2023-03-13T01:26:59.825Z,100.00
2023-03-13T01:29:27.016Z,100.00
2023-03-13T01:31:54.903Z,100.00
2023-03-13T01:34:24.941Z,100.00
2023-03-13T01:36:52.101Z,100.00
2023-03-13T01:39:19.191Z,100.00
2023-03-13T01:41:46.529Z,100.00
2023-03-13T01:44:27.001Z,100.00
2023-03-13T01:46:54.068Z,100.00
2023-03-13T01:49:34.430Z,100.00
2023-03-13T01:52:06.644Z,100.00
2023-03-13T01:54:52.974Z,100.00
2023-03-13T01:57:33.711Z,100.00
2023-03-13T02:00:12.944Z,100.00
2023-03-13T02:02:56.493Z,100.00
2023-03-13T02:05:27.141Z,100.00
2023-03-13T02:08:02.893Z,100.00
2023-03-13T02:10:34.620Z,100.00
2023-03-13T02:13:03.148Z,100.00
2023-03-13T02:15:31.159Z,100.00
2023-03-13T02:17:59.867Z,100.00
2023-03-13T02:20:28.420Z,100.00
2023-03-13T02:23:13.979Z,100.00
2023-03-13T02:25:45.560Z,100.00
2023-03-13T02:28:23.993Z,100.00
2023-03-13T02:30:54.203Z,100.00
2023-03-13T02:33:26.344Z,100.00
2023-03-13T02:35:56.022Z,100.00
2023-03-13T02:38:30.005Z,100.00
2023-03-13T02:40:59.656Z,100.00
2023-03-13T02:43:32.964Z,100.00
2023-03-13T02:46:01.591Z,100.00
2023-03-13T02:48:43.460Z,100.00
2023-03-13T02:51:17.202Z,100.00
2023-03-13T02:53:46.003Z,100.00
2023-03-13T02:56:17.143Z,100.00
2023-03-13T02:58:50.272Z,100.00
2023-03-13T03:01:20.612Z,100.00
2023-03-13T03:03:48.353Z,100.00
2023-03-13T03:06:16.585Z,100.00
2023-03-13T03:08:43.865Z,100.00
2023-03-13T03:11:11.478Z,100.00
2023-03-13T03:13:39.036Z,100.00
2023-03-13T03:16:08.621Z,100.00
2023-03-13T03:18:36.513Z,100.00
2023-03-13T03:21:08.402Z,100.00
2023-03-13T03:23:38.842Z,100.00
2023-03-13T03:26:06.688Z,100.00
2023-03-13T03:28:34.232Z,100.00
2023-03-13T03:31:08.730Z,100.00
2023-03-13T03:33:36.880Z,100.00
2023-03-13T03:36:08.037Z,100.00
2023-03-13T03:38:35.394Z,100.00
2023-03-13T03:41:02.919Z,100.00
2023-03-13T03:43:32.393Z,100.00
2023-03-13T03:45:59.551Z,100.00
2023-03-13T03:48:29.770Z,100.00
2023-03-13T03:50:56.820Z,100.00
2023-03-13T03:53:24.606Z,100.00
2023-03-13T03:55:51.594Z,100.00
2023-03-13T03:58:20.181Z,100.00
2023-03-13T04:00:47.748Z,100.00
2023-03-13T04:03:17.215Z,100.00
2023-03-13T04:05:44.560Z,100.00
2023-03-13T04:08:14.361Z,100.00
2023-03-13T04:10:44.579Z,100.00
2023-03-13T04:13:14.660Z,100.00
2023-03-13T04:15:41.544Z,100.00
2023-03-13T04:18:11.245Z,100.00
2023-03-13T04:20:39.536Z,100.00
2023-03-13T04:23:06.500Z,100.00
2023-03-13T04:25:33.962Z,100.00
2023-03-13T04:28:00.990Z,100.00
2023-03-13T04:30:29.545Z,100.00
2023-03-13T04:32:58.400Z,100.00
2023-03-13T04:35:25.469Z,100.00
2023-03-13T04:37:53.160Z,100.00
2023-03-13T04:40:20.319Z,100.00
2023-03-13T04:42:52.284Z,100.00
2023-03-13T04:45:19.669Z,100.00
2023-03-13T04:47:49.544Z,100.00
2023-03-13T04:50:19.502Z,100.00
2023-03-13T04:52:49.798Z,100.00
2023-03-13T04:55:17.077Z,100.00
2023-03-13T04:57:44.252Z,100.00
2023-03-13T05:00:19.816Z,100.00
2023-03-13T05:09:52.096Z,100.00
2023-03-13T05:14:07.565Z,100.00
2023-03-13T05:17:37.193Z,100.00
2023-03-13T05:20:22.761Z,100.00
2023-03-13T05:22:56.320Z,100.00
2023-03-13T05:25:27.076Z,100.00
2023-03-13T05:27:59.184Z,100.00
2023-03-13T05:30:27.895Z,100.00
2023-03-13T05:33:25.448Z,100.00
2023-03-13T05:36:01.666Z,100.00
2023-03-13T05:38:35.307Z,100.00
2023-03-13T05:41:04.758Z,100.00
2023-03-13T05:43:36.433Z,100.00
2023-03-13T05:46:14.846Z,100.00
2023-03-13T05:48:53.366Z,100.00
2023-03-13T05:51:38.309Z,100.00
2023-03-13T05:54:20.825Z,100.00
2023-03-13T05:56:58.443Z,100.00
2023-03-13T05:59:34.914Z,100.00
2023-03-13T06:02:22.936Z,100.00
2023-03-13T06:04:54.728Z,100.00
2023-03-13T06:07:44.725Z,100.00
2023-03-13T06:10:25.830Z,100.00
2023-03-13T06:12:56.981Z,100.00
2023-03-13T06:15:27.079Z,100.00
2023-03-13T06:18:02.872Z,100.00
2023-03-13T06:20:32.301Z,100.00
2023-03-13T06:23:05.183Z,100.00
2023-03-13T06:25:42.756Z,100.00
2023-03-13T06:28:21.327Z,100.00
2023-03-13T06:31:07.876Z,100.00
2023-03-13T06:33:42.434Z,100.00
2023-03-13T06:36:11.733Z,100.00
2023-03-13T06:38:43.357Z,100.00
2023-03-13T06:41:12.567Z,100.00
2023-03-13T06:43:45.196Z,100.00
2023-03-13T06:46:22.553Z,100.00
2023-03-13T06:48:52.130Z,100.00
2023-03-13T06:51:28.198Z,100.00
2023-03-13T06:53:57.023Z,100.00
2023-03-13T06:56:25.514Z,100.00
2023-03-13T06:59:13.351Z,100.00
2023-03-13T07:01:59.757Z,100.00
2023-03-13T07:04:34.614Z,100.00
2023-03-13T07:07:03.271Z,100.00
2023-03-13T07:09:31.838Z,100.00
2023-03-13T07:12:00.214Z,100.00
2023-03-13T07:14:29.118Z,100.00
2023-03-13T07:16:59.860Z,100.00
2023-03-13T07:19:28.242Z,100.00
2023-03-13T07:21:57.376Z,100.00
2023-03-13T07:24:26.013Z,100.00
2023-03-13T07:27:06.886Z,100.00
2023-03-13T07:29:36.110Z,100.00
2023-03-13T07:32:04.833Z,100.00
2023-03-13T07:34:33.381Z,100.00
2023-03-13T07:37:02.490Z,100.00
2023-03-13T07:39:31.196Z,100.00
2023-03-13T07:42:00.190Z,100.00
2023-03-13T07:44:29.023Z,100.00
2023-03-13T07:47:00.864Z,100.00
2023-03-13T07:49:29.129Z,100.00
2023-03-13T07:51:57.991Z,100.00
2023-03-13T07:54:26.410Z,100.00
2023-03-13T07:56:55.038Z,100.00
2023-03-13T07:59:23.311Z,100.00
2023-03-13T08:01:51.817Z,100.00
2023-03-13T08:04:20.861Z,100.00
2023-03-13T08:06:54.712Z,100.00
2023-03-13T08:09:23.131Z,100.00
2023-03-13T08:11:51.765Z,100.00
2023-03-13T08:14:20.088Z,100.00
2023-03-13T08:16:48.440Z,100.00
2023-03-13T08:19:24.094Z,100.00
2023-03-13T08:21:52.943Z,100.00
2023-03-13T08:24:21.892Z,100.00
2023-03-13T08:26:50.263Z,100.00
2023-03-13T08:29:28.256Z,100.00
2023-03-13T08:31:56.567Z,100.00
2023-03-13T08:34:24.933Z,100.00
2023-03-13T08:37:00.707Z,100.00
2023-03-13T08:39:29.103Z,100.00
2023-03-13T08:41:57.518Z,100.00
2023-03-13T08:44:29.017Z,100.00
2023-03-13T08:47:00.161Z,100.00
2023-03-13T08:49:31.293Z,100.00
2023-03-13T08:52:00.963Z,100.00
2023-03-13T08:54:29.306Z,100.00
2023-03-13T08:57:05.176Z,100.00
2023-03-13T08:59:33.652Z,100.00
2023-03-13T09:02:03.409Z,100.00
2023-03-13T09:04:36.402Z,100.00
2023-03-13T09:07:04.948Z,100.00
2023-03-13T09:09:33.375Z,100.00
2023-03-13T09:12:04.933Z,100.00
2023-03-13T09:14:35.752Z,100.00
2023-03-13T09:17:05.181Z,100.00
2023-03-13T09:19:33.714Z,100.00
2023-03-13T09:22:02.719Z,99.86
2023-03-13T09:24:33.588Z,99.27
2023-03-13T09:27:02.241Z,99.42
2023-03-13T09:29:33.605Z,99.10
2023-03-13T09:32:05.957Z,99.17
2023-03-13T09:34:37.218Z,99.24
2023-03-13T09:37:05.654Z,99.02
2023-03-13T09:39:34.311Z,98.70
2023-03-13T09:42:20.242Z,98.24
2023-03-13T09:44:59.162Z,97.97
2023-03-13T09:47:44.354Z,98.91
2023-03-13T09:50:27.100Z,99.08
2023-03-13T09:53:06.221Z,99.64
2023-03-13T09:55:38.237Z,99.88
2023-03-13T09:58:24.909Z,100.00
2023-03-13T10:01:06.387Z,100.00
2023-03-13T10:03:48.910Z,100.00
2023-03-13T10:06:20.953Z,100.00
2023-03-13T10:08:49.355Z,100.00
2023-03-13T10:11:26.119Z,100.00
2023-03-13T10:14:18.783Z,100.00
2023-03-13T10:17:16.625Z,100.00
2023-03-13T10:19:47.724Z,100.00
2023-03-13T10:22:26.597Z,100.00
2023-03-13T10:25:10.380Z,100.00
2023-03-13T10:27:55.096Z,100.00
2023-03-13T10:30:35.740Z,100.00
2023-03-13T10:33:13.020Z,100.00
2023-03-13T10:35:45.626Z,100.00
2023-03-13T10:38:24.588Z,100.00
2023-03-13T10:41:05.511Z,100.00
2023-03-13T10:43:34.376Z,100.00
2023-03-13T10:46:04.126Z,100.00
2023-03-13T10:48:37.746Z,100.00
2023-03-13T10:51:22.758Z,100.00
2023-03-13T10:53:54.449Z,100.00
2023-03-13T10:56:32.305Z,100.00
2023-03-13T10:59:01.485Z,100.00
2023-03-13T11:01:42.152Z,100.00
2023-03-13T11:04:31.219Z,100.00
2023-03-13T11:07:14.322Z,100.00
2023-03-13T11:09:42.618Z,100.00
2023-03-13T11:12:17.936Z,100.00
2023-03-13T11:14:46.921Z,100.00
2023-03-13T11:17:41.001Z,100.00
2023-03-13T11:20:30.285Z,100.00
2023-03-13T11:23:23.751Z,100.00
2023-03-13T11:26:14.349Z,100.00
2023-03-13T11:29:27.356Z,100.00
2023-03-13T11:32:05.635Z,100.00
2023-03-13T11:35:00.887Z,100.00
2023-03-13T11:37:33.673Z,100.00
2023-03-13T11:40:21.494Z,100.00
2023-03-13T11:43:11.422Z,100.00
2023-03-13T11:46:06.111Z,100.00
2023-03-13T11:49:10.800Z,100.00
2023-03-13T11:52:12.335Z,100.00
2023-03-13T11:55:26.688Z,100.00
2023-03-13T11:58:26.329Z,100.00
2023-03-13T12:01:03.803Z,100.00
2023-03-13T12:03:59.511Z,100.00
2023-03-13T12:06:36.422Z,100.00
2023-03-13T12:09:17.117Z,100.00
2023-03-13T12:12:03.848Z,100.00
2023-03-13T12:14:40.875Z,100.00
2023-03-13T12:17:37.521Z,100.00
2023-03-13T12:20:22.061Z,100.00
2023-03-13T12:23:16.144Z,100.00
2023-03-13T12:25:48.216Z,100.00
2023-03-13T12:28:43.020Z,100.00
2023-03-13T12:31:25.925Z,100.00
2023-03-13T12:34:16.491Z,100.00
2023-03-13T12:37:02.265Z,100.00
2023-03-13T12:39:36.573Z,100.00
2023-03-13T12:42:39.726Z,100.00
2023-03-13T12:45:18.927Z,100.00
2023-03-13T12:48:07.089Z,100.00
2023-03-13T12:50:41.141Z,100.00
2023-03-13T12:53:25.761Z,100.00
2023-03-13T12:56:31.683Z,100.00
2023-03-13T12:59:07.011Z,100.00
2023-03-13T13:01:56.849Z,99.91
2023-03-13T13:04:42.250Z,99.79
2023-03-13T13:07:29.141Z,98.99
2023-03-13T13:10:11.466Z,99.46
2023-03-13T13:12:42.588Z,99.33
2023-03-13T13:15:31.937Z,98.75
2023-03-13T13:18:15.662Z,97.09
2023-03-13T13:21:38.346Z,95.09
2023-03-13T13:24:47.824Z,96.34
2023-03-13T13:27:32.177Z,93.76
2023-03-13T13:30:04.718Z,93.63
2023-03-13T13:32:45.467Z,92.62
2023-03-13T13:35:13.917Z,92.28
2023-03-13T13:37:43.474Z,91.55
2023-03-13T13:40:32.485Z,91.22
2023-03-13T13:43:30.963Z,90.97
2023-03-13T13:46:10.902Z,90.11
2023-03-13T13:48:43.497Z,89.42
2023-03-13T13:51:19.877Z,90.42
2023-03-13T13:54:03.046Z,90.46
2023-03-13T13:56:44.128Z,89.31
2023-03-13T13:59:22.288Z,89.21
2023-03-13T14:02:02.493Z,88.31
2023-03-13T14:04:41.559Z,88.09
2023-03-13T14:07:28.907Z,88.42
2023-03-13T14:10:02.394Z,88.30
2023-03-13T14:12:34.701Z,88.89
2023-03-13T14:15:15.316Z,89.02
2023-03-13T14:17:49.444Z,88.10
2023-03-13T14:20:35.708Z,88.04
2023-03-13T14:23:06.918Z,87.96
2023-03-13T14:25:52.829Z,87.43
2023-03-13T14:28:24.781Z,87.30
2023-03-13T14:30:58.079Z,86.69
2023-03-13T14:33:28.067Z,86.80
2023-03-13T14:35:58.083Z,86.80
2023-03-13T14:38:36.162Z,86.92
2023-03-13T14:41:04.821Z,85.69
2023-03-13T14:43:40.999Z,84.78
2023-03-13T14:46:27.718Z,82.77
2023-03-13T14:48:56.991Z,81.19
2023-03-13T14:51:27.899Z,83.06
2023-03-13T14:54:06.708Z,83.54
2023-03-13T14:56:45.330Z,84.13
2023-03-13T14:59:26.483Z,84.72
2023-03-13T15:02:13.167Z,84.99
2023-03-13T15:05:02.062Z,85.19
2023-03-13T15:07:52.554Z,85.59
2023-03-13T15:10:42.025Z,85.71
2023-03-13T15:13:32.390Z,85.64
2023-03-13T15:16:21.718Z,85.79
2023-03-13T15:18:52.112Z,85.90
2023-03-13T15:21:23.981Z,85.84
2023-03-13T15:24:01.515Z,86.20
2023-03-13T15:26:33.195Z,86.52
2023-03-13T15:29:01.785Z,86.57
2023-03-13T15:31:31.100Z,86.83
2023-03-13T15:34:01.147Z,86.88
2023-03-13T15:36:34.811Z,87.06
2023-03-13T15:39:06.838Z,87.15
2023-03-13T15:41:35.331Z,87.38
2023-03-13T15:44:04.967Z,87.77
2023-03-13T15:46:33.549Z,88.03
2023-03-13T15:49:05.377Z,88.04
2023-03-13T15:51:38.457Z,88.35
2023-03-13T15:54:07.080Z,88.57
2023-03-13T15:56:43.444Z,88.49
2023-03-13T15:59:13.721Z,88.67
2023-03-13T16:01:45.417Z,88.70
2023-03-13T16:04:14.025Z,88.56
2023-03-13T16:06:42.523Z,88.63
2023-03-13T16:09:12.198Z,88.64
2023-03-13T16:11:43.649Z,88.55
2023-03-13T16:14:12.138Z,88.63
2023-03-13T16:16:40.571Z,88.80
2023-03-13T16:19:09.855Z,88.62
2023-03-13T16:21:40.731Z,88.45
2023-03-13T16:24:09.324Z,88.38
2023-03-13T16:26:41.429Z,88.49
2023-03-13T16:29:15.252Z,88.16
2023-03-13T16:31:44.244Z,88.02
2023-03-13T16:34:12.915Z,88.06
2023-03-13T16:36:43.969Z,88.09
2023-03-13T16:39:15.927Z,87.99
2023-03-13T16:41:47.690Z,87.60
2023-03-13T16:44:16.138Z,87.31
2023-03-13T16:46:59.235Z,87.53
2023-03-13T16:49:33.566Z,87.40
2023-03-13T16:52:02.288Z,87.32
2023-03-13T16:54:39.801Z,87.45
2023-03-13T16:57:33.597Z,87.71
2023-03-13T17:00:08.341Z,87.75
2023-03-13T17:02:37.995Z,87.81
2023-03-13T17:05:06.617Z,88.14
2023-03-13T17:07:39.067Z,88.11
2023-03-13T17:10:34.695Z,87.86
2023-03-13T17:13:05.800Z,87.78
2023-03-13T17:15:34.517Z,87.77
2023-03-13T17:18:04.741Z,87.92
2023-03-13T17:20:33.590Z,87.78
2023-03-13T17:23:05.536Z,87.52
2023-03-13T17:25:36.988Z,87.48
2023-03-13T17:28:05.529Z,87.79
2023-03-13T17:30:34.468Z,87.76
2023-03-13T17:33:03.526Z,87.78
2023-03-13T17:35:42.791Z,87.75
2023-03-13T17:38:14.779Z,87.58
2023-03-13T17:40:43.625Z,87.73
2023-03-13T17:43:14.666Z,87.93
2023-03-13T17:45:46.268Z,87.64
2023-03-13T17:48:15.375Z,87.87
2023-03-13T17:50:43.834Z,87.55
2023-03-13T17:53:13.297Z,87.65
2023-03-13T17:55:41.878Z,88.00
2023-03-13T17:58:10.529Z,88.35
2023-03-13T18:00:45.144Z,88.35
2023-03-13T18:03:13.983Z,88.40
2023-03-13T18:05:43.483Z,88.38
2023-03-13T18:08:12.215Z,88.50
2023-03-13T18:10:40.701Z,88.32
2023-03-13T18:13:09.652Z,88.54
2023-03-13T18:15:38.708Z,88.74
2023-03-13T18:18:07.374Z,88.87
2023-03-13T18:20:35.748Z,88.88
2023-03-13T18:23:07.597Z,88.86
2023-03-13T18:25:36.243Z,88.73
2023-03-13T18:28:04.957Z,88.70
2023-03-13T18:30:33.593Z,88.71
2023-03-13T18:33:02.098Z,88.79
2023-03-13T18:35:30.607Z,88.49
2023-03-13T18:37:59.924Z,88.59
2023-03-13T18:40:29.492Z,88.25
2023-03-13T18:43:00.294Z,88.13
2023-03-13T18:45:29.314Z,88.09
2023-03-13T18:47:57.732Z,87.95
2023-03-13T18:50:31.270Z,87.91
2023-03-13T18:53:02.632Z,87.85
2023-03-13T18:55:31.517Z,87.81
2023-03-13T18:58:00.915Z,88.09
2023-03-13T19:00:31.057Z,88.30
2023-03-13T19:03:20.559Z,88.50
2023-03-13T19:05:55.238Z,88.39
2023-03-13T19:08:23.977Z,88.60
2023-03-13T19:10:52.558Z,88.55
2023-03-13T19:13:21.348Z,88.58
2023-03-13T19:15:49.820Z,88.50
2023-03-13T19:18:18.340Z,88.42
2023-03-13T19:20:50.189Z,88.38
2023-03-13T19:23:19.143Z,88.25
2023-03-13T19:25:47.817Z,88.15
2023-03-13T19:28:22.499Z,88.24
2023-03-13T19:31:02.266Z,88.10
2023-03-13T19:33:53.910Z,87.73
2023-03-13T19:36:45.261Z,88.03
2023-03-13T19:39:21.693Z,87.70
2023-03-13T19:41:50.824Z,87.40
2023-03-13T19:44:21.204Z,87.27
2023-03-13T19:46:50.032Z,87.54
2023-03-13T19:49:24.924Z,87.34
2023-03-13T19:51:53.936Z,87.31
2023-03-13T19:54:24.370Z,87.07
2023-03-13T19:56:53.852Z,87.05
2023-03-13T19:59:32.130Z,86.57
2023-03-13T20:02:04.488Z,86.37
2023-03-13T20:04:33.634Z,86.29
2023-03-13T20:07:05.048Z,86.16
2023-03-13T20:09:37.031Z,86.15
2023-03-13T20:12:06.071Z,85.84
2023-03-13T20:14:35.268Z,85.80
2023-03-13T20:17:04.560Z,85.73
2023-03-13T20:19:36.569Z,85.22
2023-03-13T20:22:05.514Z,85.14
2023-03-13T20:24:34.042Z,85.04
2023-03-13T20:27:03.082Z,84.85
2023-03-13T20:29:32.051Z,84.57
2023-03-13T20:32:16.700Z,84.35
2023-03-13T20:34:45.739Z,84.28
2023-03-13T20:37:23.621Z,83.57
2023-03-13T20:39:55.186Z,83.37
2023-03-13T20:42:23.626Z,83.31
2023-03-13T20:44:52.118Z,82.88
2023-03-13T20:47:21.208Z,83.13
2023-03-13T20:49:50.064Z,82.60
2023-03-13T20:52:21.665Z,81.89
2023-03-13T20:54:50.146Z,81.86
2023-03-13T20:57:19.958Z,81.16
2023-03-13T20:59:48.486Z,80.95
2023-03-13T21:02:17.372Z,80.93
2023-03-13T21:04:45.868Z,80.54
2023-03-13T21:07:14.358Z,80.37
2023-03-13T21:09:43.040Z,80.28
2023-03-13T21:12:11.623Z,79.57
2023-03-13T21:14:55.498Z,79.78
2023-03-13T21:17:24.706Z,78.81
2023-03-13T21:20:38.935Z,78.83
2023-03-13T21:24:30.616Z,78.68
2023-03-13T21:27:36.048Z,78.63
2023-03-13T21:31:16.626Z,77.68
2023-03-13T21:39:44.114Z,75.36
2023-03-13T21:42:22.156Z,74.10
2023-03-13T21:44:50.702Z,73.66
2023-03-13T21:47:24.534Z,73.10
2023-03-13T21:49:56.862Z,73.62
2023-03-13T21:52:25.223Z,73.67
2023-03-13T21:54:53.752Z,73.97
2023-03-13T21:57:22.742Z,74.30
2023-03-13T21:59:51.674Z,74.43
2023-03-13T22:02:20.168Z,74.07
2023-03-13T22:04:48.807Z,73.83
2023-03-13T22:07:17.271Z,74.06
2023-03-13T22:09:45.995Z,74.20
2023-03-13T22:12:23.973Z,74.16
2023-03-13T22:14:53.907Z,74.41
2023-03-13T22:17:23.514Z,74.97
2023-03-13T22:19:52.246Z,75.19
2023-03-13T22:22:26.361Z,75.63
2023-03-13T22:24:54.892Z,76.17
2023-03-13T22:27:24.300Z,76.47
2023-03-13T22:29:53.034Z,77.12
2023-03-13T22:32:21.756Z,77.88
2023-03-13T22:34:50.474Z,78.29
2023-03-13T22:37:22.556Z,78.84
2023-03-13T22:39:54.886Z,79.42
2023-03-13T22:42:25.031Z,79.97
2023-03-13T22:44:55.495Z,80.45
2023-03-13T22:47:26.168Z,80.75
2023-03-13T22:49:55.157Z,81.17
2023-03-13T22:52:31.118Z,81.96
2023-03-13T22:55:00.084Z,82.57
2023-03-13T22:57:29.457Z,82.98
2023-03-13T22:59:59.517Z,83.24
2023-03-13T23:02:29.610Z,84.00
2023-03-13T23:05:00.563Z,84.32
2023-03-13T23:07:43.141Z,84.97
2023-03-13T23:10:13.286Z,84.90
2023-03-13T23:12:44.707Z,85.43
2023-03-13T23:15:13.555Z,85.82
2023-03-13T23:17:49.173Z,86.09
2023-03-13T23:20:21.613Z,86.58
2023-03-13T23:23:05.767Z,86.87
2023-03-13T23:25:40.010Z,86.93
2023-03-13T23:28:18.071Z,87.56
2023-03-13T23:31:12.484Z,87.73
2023-03-13T23:34:12.716Z,88.25
2023-03-13T23:37:04.551Z,88.72
2023-03-13T23:39:51.649Z,89.08
2023-03-13T23:42:31.844Z,89.60
2023-03-13T23:45:09.931Z,90.14
2023-03-13T23:48:01.070Z,91.13
2023-03-13T23:50:39.874Z,91.85
2023-03-13T23:53:10.359Z,92.68
2023-03-13T23:55:51.069Z,93.18
2023-03-13T23:58:33.231Z,93.43
